sensor_id;sensor_type;location;lat;lon;timestamp;P1;durP1;ratioP1;P2;durP2;ratioP2
53034;SDS011;38923;53.236;6.506;2022-09-13T00:01:42;28.88;;;19.35;;
53034;SDS011;38923;53.236;6.506;2022-09-13T00:04:07;30.25;;;20.92;;
53034;SDS011;38923;53.236;6.506;2022-09-13T00:06:33;27.20;;;18.80;;
53034;SDS011;38923;53.236;6.506;2022-09-13T00:08:59;27.50;;;19.65;;
53034;SDS011;38923;53.236;6.506;2022-09-13T00:11:26;25.52;;;18.38;;
53034;SDS011;38923;53.236;6.506;2022-09-13T00:14:09;29.35;;;17.83;;
53034;SDS011;38923;53.236;6.506;2022-09-13T00:16:35;25.33;;;17.80;;
53034;SDS011;38923;53.236;6.506;2022-09-13T00:19:01;24.00;;;15.63;;
53034;SDS011;38923;53.236;6.506;2022-09-13T00:21:27;21.85;;;16.10;;
53034;SDS011;38923;53.236;6.506;2022-09-13T00:23:53;23.25;;;17.40;;
53034;SDS011;38923;53.236;6.506;2022-09-13T00:26:23;25.08;;;16.58;;
53034;SDS011;38923;53.236;6.506;2022-09-13T00:28:51;19.90;;;14.63;;
53034;SDS011;38923;53.236;6.506;2022-09-13T00:31:19;24.70;;;17.08;;
53034;SDS011;38923;53.236;6.506;2022-09-13T00:33:47;27.05;;;17.38;;
53034;SDS011;38923;53.236;6.506;2022-09-13T00:36:13;29.00;;;18.75;;
53034;SDS011;38923;53.236;6.506;2022-09-13T00:38:42;28.17;;;18.77;;
53034;SDS011;38923;53.236;6.506;2022-09-13T00:41:13;22.52;;;16.58;;
53034;SDS011;38923;53.236;6.506;2022-09-13T00:46:40;21.95;;;14.82;;
53034;SDS011;38923;53.236;6.506;2022-09-13T00:49:20;24.15;;;16.80;;
53034;SDS011;38923;53.236;6.506;2022-09-13T00:51:56;24.88;;;17.30;;
53034;SDS011;38923;53.236;6.506;2022-09-13T00:54:26;29.13;;;19.83;;
53034;SDS011;38923;53.236;6.506;2022-09-13T00:56:56;27.10;;;17.58;;
53034;SDS011;38923;53.236;6.506;2022-09-13T00:59:52;28.23;;;19.20;;
53034;SDS011;38923;53.236;6.506;2022-09-13T01:02:24;30.80;;;20.23;;
53034;SDS011;38923;53.236;6.506;2022-09-13T01:04:51;29.55;;;19.90;;
53034;SDS011;38923;53.236;6.506;2022-09-13T01:07:17;35.08;;;21.63;;
53034;SDS011;38923;53.236;6.506;2022-09-13T01:09:44;35.42;;;22.40;;
53034;SDS011;38923;53.236;6.506;2022-09-13T01:12:24;30.00;;;20.95;;
53034;SDS011;38923;53.236;6.506;2022-09-13T01:14:57;29.92;;;20.10;;
53034;SDS011;38923;53.236;6.506;2022-09-13T01:17:26;27.33;;;19.17;;
53034;SDS011;38923;53.236;6.506;2022-09-13T01:19:54;30.80;;;20.10;;
53034;SDS011;38923;53.236;6.506;2022-09-13T01:36:50;22.77;;;13.65;;
53034;SDS011;38923;53.236;6.506;2022-09-13T01:39:48;18.60;;;13.68;;
53034;SDS011;38923;53.236;6.506;2022-09-13T01:42:28;20.40;;;14.05;;
53034;SDS011;38923;53.236;6.506;2022-09-13T01:48:05;17.67;;;13.32;;
53034;SDS011;38923;53.236;6.506;2022-09-13T01:50:48;21.38;;;13.25;;
53034;SDS011;38923;53.236;6.506;2022-09-13T01:56:27;19.58;;;13.88;;
53034;SDS011;38923;53.236;6.506;2022-09-13T01:59:13;19.80;;;13.35;;
53034;SDS011;38923;53.236;6.506;2022-09-13T02:02:09;20.67;;;13.23;;
53034;SDS011;38923;53.236;6.506;2022-09-13T02:04:37;20.33;;;14.13;;
53034;SDS011;38923;53.236;6.506;2022-09-13T02:07:26;18.50;;;13.15;;
53034;SDS011;38923;53.236;6.506;2022-09-13T02:09:59;21.27;;;14.20;;
53034;SDS011;38923;53.236;6.506;2022-09-13T02:12:31;19.63;;;14.80;;
53034;SDS011;38923;53.236;6.506;2022-09-13T02:17:37;23.38;;;14.48;;
53034;SDS011;38923;53.236;6.506;2022-09-13T02:20:07;19.48;;;14.43;;
53034;SDS011;38923;53.236;6.506;2022-09-13T02:22:50;21.30;;;14.93;;
53034;SDS011;38923;53.236;6.506;2022-09-13T02:25:24;17.80;;;13.95;;
53034;SDS011;38923;53.236;6.506;2022-09-13T02:27:53;18.42;;;14.15;;
53034;SDS011;38923;53.236;6.506;2022-09-13T02:30:26;22.30;;;14.88;;
53034;SDS011;38923;53.236;6.506;2022-09-13T02:32:55;22.55;;;15.63;;
53034;SDS011;38923;53.236;6.506;2022-09-13T02:35:32;20.48;;;13.75;;
53034;SDS011;38923;53.236;6.506;2022-09-13T02:38:08;20.95;;;13.57;;
53034;SDS011;38923;53.236;6.506;2022-09-13T02:40:42;17.38;;;12.75;;
53034;SDS011;38923;53.236;6.506;2022-09-13T02:43:19;17.95;;;13.88;;
53034;SDS011;38923;53.236;6.506;2022-09-13T02:45:53;19.73;;;14.00;;
53034;SDS011;38923;53.236;6.506;2022-09-13T02:48:24;20.50;;;15.13;;
53034;SDS011;38923;53.236;6.506;2022-09-13T02:50:58;16.30;;;12.20;;
53034;SDS011;38923;53.236;6.506;2022-09-13T02:58:50;14.38;;;10.38;;
53034;SDS011;38923;53.236;6.506;2022-09-13T03:01:34;14.05;;;8.60;;
53034;SDS011;38923;53.236;6.506;2022-09-13T03:04:02;13.95;;;7.55;;
53034;SDS011;38923;53.236;6.506;2022-09-13T03:06:28;10.77;;;6.57;;
53034;SDS011;38923;53.236;6.506;2022-09-13T03:08:55;9.75;;;4.72;;
53034;SDS011;38923;53.236;6.506;2022-09-13T03:14:28;5.82;;;3.30;;
53034;SDS011;38923;53.236;6.506;2022-09-13T03:28:19;4.90;;;1.30;;
53034;SDS011;38923;53.236;6.506;2022-09-13T03:31:03;3.10;;;1.90;;
53034;SDS011;38923;53.236;6.506;2022-09-13T03:36:16;6.80;;;1.35;;
53034;SDS011;38923;53.236;6.506;2022-09-13T03:41:18;3.95;;;1.10;;
53034;SDS011;38923;53.236;6.506;2022-09-13T03:44:00;3.95;;;1.35;;
53034;SDS011;38923;53.236;6.506;2022-09-13T03:46:30;4.43;;;1.13;;
53034;SDS011;38923;53.236;6.506;2022-09-13T03:49:05;2.28;;;1.15;;
53034;SDS011;38923;53.236;6.506;2022-09-13T03:51:33;2.42;;;1.30;;
53034;SDS011;38923;53.236;6.506;2022-09-13T03:54:02;2.38;;;1.30;;
53034;SDS011;38923;53.236;6.506;2022-09-13T03:56:30;3.42;;;1.30;;
53034;SDS011;38923;53.236;6.506;2022-09-13T03:58:56;2.45;;;1.20;;
53034;SDS011;38923;53.236;6.506;2022-09-13T04:01:22;3.13;;;1.35;;
53034;SDS011;38923;53.236;6.506;2022-09-13T04:03:49;4.75;;;1.65;;
53034;SDS011;38923;53.236;6.506;2022-09-13T04:06:15;2.85;;;1.35;;
53034;SDS011;38923;53.236;6.506;2022-09-13T04:08:41;4.88;;;1.40;;
53034;SDS011;38923;53.236;6.506;2022-09-13T04:11:07;4.10;;;1.35;;
53034;SDS011;38923;53.236;6.506;2022-09-13T04:13:33;4.25;;;1.52;;
53034;SDS011;38923;53.236;6.506;2022-09-13T04:16:04;2.88;;;1.40;;
53034;SDS011;38923;53.236;6.506;2022-09-13T04:18:31;4.60;;;1.50;;
53034;SDS011;38923;53.236;6.506;2022-09-13T04:20:58;6.95;;;1.60;;
53034;SDS011;38923;53.236;6.506;2022-09-13T04:23:24;4.57;;;1.60;;
53034;SDS011;38923;53.236;6.506;2022-09-13T04:25:52;5.53;;;1.35;;
53034;SDS011;38923;53.236;6.506;2022-09-13T04:28:18;4.07;;;1.60;;
53034;SDS011;38923;53.236;6.506;2022-09-13T04:30:45;4.72;;;1.90;;
53034;SDS011;38923;53.236;6.506;2022-09-13T04:33:12;5.47;;;2.10;;
53034;SDS011;38923;53.236;6.506;2022-09-13T04:35:38;5.50;;;2.03;;
53034;SDS011;38923;53.236;6.506;2022-09-13T04:38:05;5.63;;;1.60;;
53034;SDS011;38923;53.236;6.506;2022-09-13T04:40:31;3.53;;;1.70;;
53034;SDS011;38923;53.236;6.506;2022-09-13T04:42:59;6.35;;;1.70;;
53034;SDS011;38923;53.236;6.506;2022-09-13T04:45:25;5.55;;;1.42;;
53034;SDS011;38923;53.236;6.506;2022-09-13T04:47:52;4.50;;;1.33;;
53034;SDS011;38923;53.236;6.506;2022-09-13T04:50:18;5.22;;;1.55;;
53034;SDS011;38923;53.236;6.506;2022-09-13T04:52:45;8.85;;;1.80;;
53034;SDS011;38923;53.236;6.506;2022-09-13T04:55:11;3.65;;;1.67;;
53034;SDS011;38923;53.236;6.506;2022-09-13T04:57:38;4.63;;;1.70;;
53034;SDS011;38923;53.236;6.506;2022-09-13T05:00:04;5.10;;;1.85;;
53034;SDS011;38923;53.236;6.506;2022-09-13T05:02:31;5.72;;;1.95;;
53034;SDS011;38923;53.236;6.506;2022-09-13T05:04:57;5.35;;;1.83;;
53034;SDS011;38923;53.236;6.506;2022-09-13T05:07:22;6.10;;;1.80;;
53034;SDS011;38923;53.236;6.506;2022-09-13T05:09:48;3.97;;;1.55;;
53034;SDS011;38923;53.236;6.506;2022-09-13T05:12:14;6.82;;;2.63;;
53034;SDS011;38923;53.236;6.506;2022-09-13T05:14:40;5.70;;;2.13;;
53034;SDS011;38923;53.236;6.506;2022-09-13T05:17:06;5.28;;;2.17;;
53034;SDS011;38923;53.236;6.506;2022-09-13T05:19:31;4.80;;;2.40;;
53034;SDS011;38923;53.236;6.506;2022-09-13T05:21:57;5.90;;;2.20;;
53034;SDS011;38923;53.236;6.506;2022-09-13T05:24:23;6.93;;;2.35;;
53034;SDS011;38923;53.236;6.506;2022-09-13T05:26:49;7.13;;;2.45;;
53034;SDS011;38923;53.236;6.506;2022-09-13T05:29:14;6.45;;;2.10;;
53034;SDS011;38923;53.236;6.506;2022-09-13T05:31:41;6.55;;;2.20;;
53034;SDS011;38923;53.236;6.506;2022-09-13T05:34:08;5.65;;;2.35;;
53034;SDS011;38923;53.236;6.506;2022-09-13T05:36:38;8.93;;;1.90;;
53034;SDS011;38923;53.236;6.506;2022-09-13T05:39:05;7.88;;;1.70;;
53034;SDS011;38923;53.236;6.506;2022-09-13T05:41:31;6.53;;;1.60;;
53034;SDS011;38923;53.236;6.506;2022-09-13T05:43:57;7.00;;;2.00;;
53034;SDS011;38923;53.236;6.506;2022-09-13T05:46:24;6.05;;;2.13;;
53034;SDS011;38923;53.236;6.506;2022-09-13T05:48:50;9.30;;;2.25;;
53034;SDS011;38923;53.236;6.506;2022-09-13T05:51:20;8.80;;;2.40;;
53034;SDS011;38923;53.236;6.506;2022-09-13T05:53:47;14.40;;;2.25;;
53034;SDS011;38923;53.236;6.506;2022-09-13T05:56:15;5.97;;;1.95;;
53034;SDS011;38923;53.236;6.506;2022-09-13T05:58:44;7.78;;;2.15;;
53034;SDS011;38923;53.236;6.506;2022-09-13T06:01:12;7.05;;;1.98;;
53034;SDS011;38923;53.236;6.506;2022-09-13T06:03:39;9.27;;;2.55;;
53034;SDS011;38923;53.236;6.506;2022-09-13T06:06:05;12.93;;;2.67;;
53034;SDS011;38923;53.236;6.506;2022-09-13T06:08:31;10.90;;;2.17;;
53034;SDS011;38923;53.236;6.506;2022-09-13T06:10:58;6.95;;;1.98;;
53034;SDS011;38923;53.236;6.506;2022-09-13T06:13:26;7.75;;;2.13;;
53034;SDS011;38923;53.236;6.506;2022-09-13T06:15:52;6.05;;;1.85;;
53034;SDS011;38923;53.236;6.506;2022-09-13T06:18:20;14.68;;;2.10;;
53034;SDS011;38923;53.236;6.506;2022-09-13T06:20:46;10.63;;;2.10;;
53034;SDS011;38923;53.236;6.506;2022-09-13T06:23:12;6.93;;;2.20;;
53034;SDS011;38923;53.236;6.506;2022-09-13T06:25:39;9.60;;;2.67;;
53034;SDS011;38923;53.236;6.506;2022-09-13T06:28:05;7.95;;;2.40;;
53034;SDS011;38923;53.236;6.506;2022-09-13T06:30:31;5.45;;;1.88;;
53034;SDS011;38923;53.236;6.506;2022-09-13T06:32:56;7.95;;;1.65;;
53034;SDS011;38923;53.236;6.506;2022-09-13T06:35:22;8.40;;;1.67;;
53034;SDS011;38923;53.236;6.506;2022-09-13T06:37:48;10.40;;;1.63;;
53034;SDS011;38923;53.236;6.506;2022-09-13T06:40:14;6.40;;;1.60;;
53034;SDS011;38923;53.236;6.506;2022-09-13T06:42:41;10.30;;;1.85;;
53034;SDS011;38923;53.236;6.506;2022-09-13T06:45:07;10.23;;;1.70;;
53034;SDS011;38923;53.236;6.506;2022-09-13T06:47:33;7.63;;;1.90;;
53034;SDS011;38923;53.236;6.506;2022-09-13T06:50:00;6.97;;;1.70;;
53034;SDS011;38923;53.236;6.506;2022-09-13T06:52:26;10.13;;;1.52;;
53034;SDS011;38923;53.236;6.506;2022-09-13T06:54:52;10.15;;;1.92;;
53034;SDS011;38923;53.236;6.506;2022-09-13T06:57:18;7.45;;;1.40;;
53034;SDS011;38923;53.236;6.506;2022-09-13T06:59:44;11.73;;;1.80;;
53034;SDS011;38923;53.236;6.506;2022-09-13T07:02:09;8.95;;;2.15;;
53034;SDS011;38923;53.236;6.506;2022-09-13T07:04:37;5.10;;;1.40;;
53034;SDS011;38923;53.236;6.506;2022-09-13T07:07:03;5.57;;;1.30;;
53034;SDS011;38923;53.236;6.506;2022-09-13T07:09:29;4.28;;;0.90;;
53034;SDS011;38923;53.236;6.506;2022-09-13T07:11:54;5.78;;;1.02;;
53034;SDS011;38923;53.236;6.506;2022-09-13T07:14:30;5.15;;;0.90;;
53034;SDS011;38923;53.236;6.506;2022-09-13T07:16:56;4.97;;;1.20;;
53034;SDS011;38923;53.236;6.506;2022-09-13T07:19:22;3.28;;;0.88;;
53034;SDS011;38923;53.236;6.506;2022-09-13T07:21:52;7.25;;;0.80;;
53034;SDS011;38923;53.236;6.506;2022-09-13T07:24:19;5.53;;;1.35;;
53034;SDS011;38923;53.236;6.506;2022-09-13T07:26:46;8.90;;;1.00;;
53034;SDS011;38923;53.236;6.506;2022-09-13T07:29:17;5.25;;;0.90;;
53034;SDS011;38923;53.236;6.506;2022-09-13T07:31:47;4.93;;;0.95;;
53034;SDS011;38923;53.236;6.506;2022-09-13T07:34:19;5.15;;;0.60;;
53034;SDS011;38923;53.236;6.506;2022-09-13T07:36:46;4.07;;;0.70;;
53034;SDS011;38923;53.236;6.506;2022-09-13T07:39:13;7.40;;;0.95;;
53034;SDS011;38923;53.236;6.506;2022-09-13T07:41:39;5.75;;;0.82;;
53034;SDS011;38923;53.236;6.506;2022-09-13T07:44:05;7.88;;;0.77;;
53034;SDS011;38923;53.236;6.506;2022-09-13T07:46:33;6.88;;;0.88;;
53034;SDS011;38923;53.236;6.506;2022-09-13T07:49:05;5.70;;;0.95;;
53034;SDS011;38923;53.236;6.506;2022-09-13T07:51:32;9.43;;;1.00;;
53034;SDS011;38923;53.236;6.506;2022-09-13T07:54:01;5.25;;;0.90;;
53034;SDS011;38923;53.236;6.506;2022-09-13T07:56:29;7.60;;;0.88;;
53034;SDS011;38923;53.236;6.506;2022-09-13T07:58:57;4.40;;;0.70;;
53034;SDS011;38923;53.236;6.506;2022-09-13T08:01:28;6.18;;;0.88;;
53034;SDS011;38923;53.236;6.506;2022-09-13T08:03:59;11.43;;;1.02;;
53034;SDS011;38923;53.236;6.506;2022-09-13T08:06:27;5.15;;;0.82;;
53034;SDS011;38923;53.236;6.506;2022-09-13T08:08:54;6.60;;;0.80;;
53034;SDS011;38923;53.236;6.506;2022-09-13T08:11:28;6.60;;;1.10;;
53034;SDS011;38923;53.236;6.506;2022-09-13T08:13:58;4.80;;;0.80;;
53034;SDS011;38923;53.236;6.506;2022-09-13T08:16:25;8.88;;;0.98;;
53034;SDS011;38923;53.236;6.506;2022-09-13T08:18:53;6.85;;;0.80;;
53034;SDS011;38923;53.236;6.506;2022-09-13T08:21:20;10.23;;;1.17;;
53034;SDS011;38923;53.236;6.506;2022-09-13T08:23:47;3.53;;;0.85;;
53034;SDS011;38923;53.236;6.506;2022-09-13T08:26:13;7.40;;;1.10;;
53034;SDS011;38923;53.236;6.506;2022-09-13T08:28:41;5.90;;;0.90;;
53034;SDS011;38923;53.236;6.506;2022-09-13T08:31:08;4.78;;;0.55;;
53034;SDS011;38923;53.236;6.506;2022-09-13T08:33:42;5.78;;;0.65;;
53034;SDS011;38923;53.236;6.506;2022-09-13T08:36:09;2.70;;;0.47;;
53034;SDS011;38923;53.236;6.506;2022-09-13T08:38:35;8.23;;;0.80;;
53034;SDS011;38923;53.236;6.506;2022-09-13T08:41:02;4.63;;;0.70;;
53034;SDS011;38923;53.236;6.506;2022-09-13T08:43:55;6.30;;;0.63;;
53034;SDS011;38923;53.236;6.506;2022-09-13T08:46:44;9.18;;;0.95;;
53034;SDS011;38923;53.236;6.506;2022-09-13T08:49:11;5.35;;;0.60;;
53034;SDS011;38923;53.236;6.506;2022-09-13T08:51:44;5.10;;;0.93;;
53034;SDS011;38923;53.236;6.506;2022-09-13T08:54:16;4.45;;;0.52;;
53034;SDS011;38923;53.236;6.506;2022-09-13T09:07:52;7.97;;;1.25;;
53034;SDS011;38923;53.236;6.506;2022-09-13T09:10:45;5.30;;;0.60;;
53034;SDS011;38923;53.236;6.506;2022-09-13T09:13:16;4.40;;;0.65;;
53034;SDS011;38923;53.236;6.506;2022-09-13T09:16:25;6.40;;;0.70;;
53034;SDS011;38923;53.236;6.506;2022-09-13T09:19:13;3.35;;;0.50;;
53034;SDS011;38923;53.236;6.506;2022-09-13T09:21:51;8.05;;;0.60;;
53034;SDS011;38923;53.236;6.506;2022-09-13T09:24:18;4.22;;;0.60;;
53034;SDS011;38923;53.236;6.506;2022-09-13T09:26:49;5.70;;;0.55;;
53034;SDS011;38923;53.236;6.506;2022-09-13T09:29:22;8.93;;;1.23;;
53034;SDS011;38923;53.236;6.506;2022-09-13T09:34:32;10.00;;;1.15;;
53034;SDS011;38923;53.236;6.506;2022-09-13T09:37:20;8.88;;;0.73;;
53034;SDS011;38923;53.236;6.506;2022-09-13T09:39:51;5.88;;;0.80;;
53034;SDS011;38923;53.236;6.506;2022-09-13T09:44:48;7.43;;;0.90;;
53034;SDS011;38923;53.236;6.506;2022-09-13T09:47:27;5.22;;;0.60;;
53034;SDS011;38923;53.236;6.506;2022-09-13T09:50:00;4.15;;;0.93;;
53034;SDS011;38923;53.236;6.506;2022-09-13T09:52:54;6.55;;;0.70;;
53034;SDS011;38923;53.236;6.506;2022-09-13T09:55:31;4.57;;;0.75;;
53034;SDS011;38923;53.236;6.506;2022-09-13T09:58:01;6.00;;;0.80;;
53034;SDS011;38923;53.236;6.506;2022-09-13T10:00:34;6.43;;;0.90;;
53034;SDS011;38923;53.236;6.506;2022-09-13T10:03:05;7.25;;;0.73;;
53034;SDS011;38923;53.236;6.506;2022-09-13T10:05:41;6.10;;;0.88;;
53034;SDS011;38923;53.236;6.506;2022-09-13T10:08:11;7.38;;;0.82;;
53034;SDS011;38923;53.236;6.506;2022-09-13T10:10:56;7.32;;;0.90;;
53034;SDS011;38923;53.236;6.506;2022-09-13T10:13:24;5.82;;;0.80;;
53034;SDS011;38923;53.236;6.506;2022-09-13T10:16:03;5.15;;;0.70;;
53034;SDS011;38923;53.236;6.506;2022-09-13T10:18:35;7.32;;;0.90;;
53034;SDS011;38923;53.236;6.506;2022-09-13T10:23:45;6.55;;;1.33;;
53034;SDS011;38923;53.236;6.506;2022-09-13T10:26:24;5.47;;;0.70;;
53034;SDS011;38923;53.236;6.506;2022-09-13T10:28:53;5.53;;;1.17;;
53034;SDS011;38923;53.236;6.506;2022-09-13T10:31:27;6.25;;;0.80;;
53034;SDS011;38923;53.236;6.506;2022-09-13T10:33:59;5.82;;;0.70;;
53034;SDS011;38923;53.236;6.506;2022-09-13T10:36:35;6.75;;;0.93;;
53034;SDS011;38923;53.236;6.506;2022-09-13T10:39:03;6.10;;;0.88;;
53034;SDS011;38923;53.236;6.506;2022-09-13T10:41:35;8.77;;;0.85;;
53034;SDS011;38923;53.236;6.506;2022-09-13T10:44:04;7.57;;;1.25;;
53034;SDS011;38923;53.236;6.506;2022-09-13T10:46:45;4.75;;;0.60;;
53034;SDS011;38923;53.236;6.506;2022-09-13T10:52:27;5.97;;;0.77;;
53034;SDS011;38923;53.236;6.506;2022-09-13T10:54:53;5.90;;;0.95;;
53034;SDS011;38923;53.236;6.506;2022-09-13T10:57:54;6.85;;;0.70;;
53034;SDS011;38923;53.236;6.506;2022-09-13T11:00:19;3.90;;;0.60;;
53034;SDS011;38923;53.236;6.506;2022-09-13T11:05:42;2.90;;;0.60;;
53034;SDS011;38923;53.236;6.506;2022-09-13T11:16:14;3.97;;;0.70;;
53034;SDS011;38923;53.236;6.506;2022-09-13T11:19:03;4.45;;;0.50;;
53034;SDS011;38923;53.236;6.506;2022-09-13T11:21:46;3.95;;;0.75;;
53034;SDS011;38923;53.236;6.506;2022-09-13T11:30:17;6.78;;;0.77;;
53034;SDS011;38923;53.236;6.506;2022-09-13T11:32:55;5.47;;;1.17;;
53034;SDS011;38923;53.236;6.506;2022-09-13T11:47:30;8.77;;;0.95;;
53034;SDS011;38923;53.236;6.506;2022-09-13T11:55:04;11.60;;;0.95;;
53034;SDS011;38923;53.236;6.506;2022-09-13T11:57:41;6.85;;;0.80;;
53034;SDS011;38923;53.236;6.506;2022-09-13T12:02:48;6.85;;;0.63;;
53034;SDS011;38923;53.236;6.506;2022-09-13T12:05:16;7.55;;;0.57;;
53034;SDS011;38923;53.236;6.506;2022-09-13T12:07:52;7.22;;;1.15;;
53034;SDS011;38923;53.236;6.506;2022-09-13T12:10:24;7.40;;;0.80;;
53034;SDS011;38923;53.236;6.506;2022-09-13T12:13:03;9.85;;;1.00;;
53034;SDS011;38923;53.236;6.506;2022-09-13T12:15:38;7.90;;;0.85;;
53034;SDS011;38923;53.236;6.506;2022-09-13T12:18:13;7.80;;;0.90;;
53034;SDS011;38923;53.236;6.506;2022-09-13T12:20:47;6.85;;;1.20;;
53034;SDS011;38923;53.236;6.506;2022-09-13T12:23:26;7.63;;;1.15;;
53034;SDS011;38923;53.236;6.506;2022-09-13T12:25:58;8.77;;;1.13;;
53034;SDS011;38923;53.236;6.506;2022-09-13T12:30:59;7.43;;;1.05;;
53034;SDS011;38923;53.236;6.506;2022-09-13T12:33:37;12.98;;;0.98;;
53034;SDS011;38923;53.236;6.506;2022-09-13T12:44:14;7.85;;;1.25;;
53034;SDS011;38923;53.236;6.506;2022-09-13T12:58:28;6.22;;;0.73;;
53034;SDS011;38923;53.236;6.506;2022-09-13T13:03:48;8.23;;;0.82;;
53034;SDS011;38923;53.236;6.506;2022-09-13T13:06:28;6.18;;;1.00;;
53034;SDS011;38923;53.236;6.506;2022-09-13T13:09:05;7.43;;;0.98;;
53034;SDS011;38923;53.236;6.506;2022-09-13T13:11:46;10.68;;;2.67;;
53034;SDS011;38923;53.236;6.506;2022-09-13T13:32:03;6.97;;;1.10;;
53034;SDS011;38923;53.236;6.506;2022-09-13T13:34:00;5.93;;;0.80;;
53034;SDS011;38923;53.236;6.506;2022-09-13T13:36:44;4.65;;;0.57;;
53034;SDS011;38923;53.236;6.506;2022-09-13T13:41:58;6.72;;;1.10;;
53034;SDS011;38923;53.236;6.506;2022-09-13T13:57:26;6.80;;;0.95;;
53034;SDS011;38923;53.236;6.506;2022-09-13T14:08:14;22.13;;;3.00;;
53034;SDS011;38923;53.236;6.506;2022-09-13T14:20:11;8.25;;;0.93;;
53034;SDS011;38923;53.236;6.506;2022-09-13T14:22:40;7.55;;;1.83;;
53034;SDS011;38923;53.236;6.506;2022-09-13T14:27:41;8.38;;;0.90;;
53034;SDS011;38923;53.236;6.506;2022-09-13T14:30:23;7.28;;;0.70;;
53034;SDS011;38923;53.236;6.506;2022-09-13T14:32:53;6.88;;;1.10;;
53034;SDS011;38923;53.236;6.506;2022-09-13T14:38:18;4.82;;;0.63;;
53034;SDS011;38923;53.236;6.506;2022-09-13T14:40:46;3.08;;;0.70;;
53034;SDS011;38923;53.236;6.506;2022-09-13T14:43:20;5.47;;;0.90;;
53034;SDS011;38923;53.236;6.506;2022-09-13T14:45:48;5.38;;;0.57;;
53034;SDS011;38923;53.236;6.506;2022-09-13T14:56:43;4.15;;;0.90;;
53034;SDS011;38923;53.236;6.506;2022-09-13T14:59:26;8.43;;;0.90;;
53034;SDS011;38923;53.236;6.506;2022-09-13T15:01:56;5.93;;;0.70;;
53034;SDS011;38923;53.236;6.506;2022-09-13T15:04:23;7.40;;;0.90;;
53034;SDS011;38923;53.236;6.506;2022-09-13T15:07:05;3.67;;;0.60;;
53034;SDS011;38923;53.236;6.506;2022-09-13T15:09:33;4.57;;;0.60;;
53034;SDS011;38923;53.236;6.506;2022-09-13T15:12:01;9.05;;;0.57;;
53034;SDS011;38923;53.236;6.506;2022-09-13T15:14:34;7.95;;;0.80;;
53034;SDS011;38923;53.236;6.506;2022-09-13T15:19:43;6.43;;;0.85;;
53034;SDS011;38923;53.236;6.506;2022-09-13T15:22:31;5.85;;;0.60;;
53034;SDS011;38923;53.236;6.506;2022-09-13T15:24:58;6.07;;;0.95;;
53034;SDS011;38923;53.236;6.506;2022-09-13T15:29:53;6.50;;;1.48;;
53034;SDS011;38923;53.236;6.506;2022-09-13T15:33:27;6.10;;;0.90;;
53034;SDS011;38923;53.236;6.506;2022-09-13T15:35:30;4.38;;;1.23;;
53034;SDS011;38923;53.236;6.506;2022-09-13T15:43:23;4.72;;;0.70;;
53034;SDS011;38923;53.236;6.506;2022-09-13T15:45:48;5.95;;;1.00;;
53034;SDS011;38923;53.236;6.506;2022-09-13T15:48:21;9.98;;;0.98;;
53034;SDS011;38923;53.236;6.506;2022-09-13T15:51:10;6.43;;;0.90;;
53034;SDS011;38923;53.236;6.506;2022-09-13T15:53:38;5.43;;;0.60;;
53034;SDS011;38923;53.236;6.506;2022-09-13T15:56:05;3.70;;;0.60;;
53034;SDS011;38923;53.236;6.506;2022-09-13T15:58:32;7.68;;;0.70;;
53034;SDS011;38923;53.236;6.506;2022-09-13T16:00:59;5.78;;;0.70;;
53034;SDS011;38923;53.236;6.506;2022-09-13T16:03:26;5.28;;;0.85;;
53034;SDS011;38923;53.236;6.506;2022-09-13T16:05:52;4.97;;;0.90;;
53034;SDS011;38923;53.236;6.506;2022-09-13T16:08:18;5.43;;;0.80;;
53034;SDS011;38923;53.236;6.506;2022-09-13T16:10:44;9.15;;;1.63;;
53034;SDS011;38923;53.236;6.506;2022-09-13T16:13:10;9.98;;;1.13;;
53034;SDS011;38923;53.236;6.506;2022-09-13T16:15:36;6.38;;;0.80;;
53034;SDS011;38923;53.236;6.506;2022-09-13T16:18:02;6.93;;;1.20;;
53034;SDS011;38923;53.236;6.506;2022-09-13T16:20:28;4.43;;;0.60;;
53034;SDS011;38923;53.236;6.506;2022-09-13T16:22:54;5.80;;;0.73;;
53034;SDS011;38923;53.236;6.506;2022-09-13T16:25:19;6.93;;;0.75;;
53034;SDS011;38923;53.236;6.506;2022-09-13T16:27:45;6.10;;;0.60;;
53034;SDS011;38923;53.236;6.506;2022-09-13T16:30:11;7.65;;;0.93;;
53034;SDS011;38923;53.236;6.506;2022-09-13T16:32:39;5.70;;;0.68;;
53034;SDS011;38923;53.236;6.506;2022-09-13T16:35:05;7.18;;;0.82;;
53034;SDS011;38923;53.236;6.506;2022-09-13T16:37:32;4.43;;;0.77;;
53034;SDS011;38923;53.236;6.506;2022-09-13T16:39:58;4.40;;;0.65;;
53034;SDS011;38923;53.236;6.506;2022-09-13T16:42:24;4.38;;;0.50;;
53034;SDS011;38923;53.236;6.506;2022-09-13T16:44:50;3.65;;;1.13;;
53034;SDS011;38923;53.236;6.506;2022-09-13T16:47:16;6.30;;;0.80;;
53034;SDS011;38923;53.236;6.506;2022-09-13T16:49:42;8.75;;;0.88;;
53034;SDS011;38923;53.236;6.506;2022-09-13T16:52:08;3.55;;;0.52;;
53034;SDS011;38923;53.236;6.506;2022-09-13T16:54:34;6.75;;;0.82;;
53034;SDS011;38923;53.236;6.506;2022-09-13T16:57:01;6.47;;;0.70;;
53034;SDS011;38923;53.236;6.506;2022-09-13T16:59:28;3.00;;;0.40;;
53034;SDS011;38923;53.236;6.506;2022-09-13T17:01:55;5.50;;;0.50;;
53034;SDS011;38923;53.236;6.506;2022-09-13T17:04:21;4.25;;;0.43;;
53034;SDS011;38923;53.236;6.506;2022-09-13T17:06:48;5.90;;;0.65;;
53034;SDS011;38923;53.236;6.506;2022-09-13T17:09:14;3.97;;;0.73;;
53034;SDS011;38923;53.236;6.506;2022-09-13T17:11:40;4.85;;;0.75;;
53034;SDS011;38923;53.236;6.506;2022-09-13T17:14:08;2.80;;;0.50;;
53034;SDS011;38923;53.236;6.506;2022-09-13T17:16:48;4.60;;;0.50;;
53034;SDS011;38923;53.236;6.506;2022-09-13T17:19:21;2.17;;;0.40;;
53034;SDS011;38923;53.236;6.506;2022-09-13T17:21:49;5.38;;;0.47;;
53034;SDS011;38923;53.236;6.506;2022-09-13T17:24:16;4.28;;;0.52;;
53034;SDS011;38923;53.236;6.506;2022-09-13T17:26:42;6.32;;;0.50;;
53034;SDS011;38923;53.236;6.506;2022-09-13T17:29:12;6.63;;;0.70;;
53034;SDS011;38923;53.236;6.506;2022-09-13T17:31:38;6.05;;;0.50;;
53034;SDS011;38923;53.236;6.506;2022-09-13T17:34:06;4.35;;;0.65;;
53034;SDS011;38923;53.236;6.506;2022-09-13T17:36:32;3.55;;;0.47;;
53034;SDS011;38923;53.236;6.506;2022-09-13T17:38:58;6.80;;;0.68;;
53034;SDS011;38923;53.236;6.506;2022-09-13T17:41:24;3.50;;;0.60;;
53034;SDS011;38923;53.236;6.506;2022-09-13T17:43:50;2.58;;;0.60;;
53034;SDS011;38923;53.236;6.506;2022-09-13T17:46:18;3.42;;;0.50;;
53034;SDS011;38923;53.236;6.506;2022-09-13T17:48:46;1.83;;;0.30;;
53034;SDS011;38923;53.236;6.506;2022-09-13T17:51:14;7.20;;;0.80;;
53034;SDS011;38923;53.236;6.506;2022-09-13T17:53:48;7.15;;;0.90;;
53034;SDS011;38923;53.236;6.506;2022-09-13T17:56:20;4.57;;;0.50;;
53034;SDS011;38923;53.236;6.506;2022-09-13T17:58:49;3.53;;;0.47;;
53034;SDS011;38923;53.236;6.506;2022-09-13T18:01:15;4.18;;;0.68;;
53034;SDS011;38923;53.236;6.506;2022-09-13T18:03:41;2.05;;;0.50;;
53034;SDS011;38923;53.236;6.506;2022-09-13T18:06:07;3.65;;;0.57;;
53034;SDS011;38923;53.236;6.506;2022-09-13T18:08:35;8.23;;;0.70;;
53034;SDS011;38923;53.236;6.506;2022-09-13T18:11:03;5.72;;;0.68;;
53034;SDS011;38923;53.236;6.506;2022-09-13T18:13:31;5.10;;;0.60;;
53034;SDS011;38923;53.236;6.506;2022-09-13T18:16:01;4.45;;;0.47;;
53034;SDS011;38923;53.236;6.506;2022-09-13T18:18:28;4.05;;;0.43;;
53034;SDS011;38923;53.236;6.506;2022-09-13T18:20:54;3.22;;;0.50;;
53034;SDS011;38923;53.236;6.506;2022-09-13T18:23:21;5.15;;;0.90;;
53034;SDS011;38923;53.236;6.506;2022-09-13T18:26:00;6.95;;;0.65;;
53034;SDS011;38923;53.236;6.506;2022-09-13T18:28:28;4.82;;;0.60;;
53034;SDS011;38923;53.236;6.506;2022-09-13T18:30:55;10.35;;;0.55;;
53034;SDS011;38923;53.236;6.506;2022-09-13T18:33:23;6.18;;;0.50;;